createdAt,value
2022-12-23T00:01:23.648Z,1.73
2022-12-23T00:03:51.257Z,1.52
2022-12-23T00:06:20.331Z,2.78
2022-12-23T00:08:47.376Z,2.38
2022-12-23T00:11:17.861Z,2.50
2022-12-23T00:14:04.920Z,1.60
2022-12-23T00:16:32.211Z,1.42
2022-12-23T00:18:59.273Z,2.03
2022-12-23T00:21:26.314Z,2.25
2022-12-23T00:23:53.620Z,1.45
2022-12-23T00:26:26.651Z,0.95
2022-12-23T00:28:56.435Z,2.33
2022-12-23T00:31:23.898Z,1.38
2022-12-23T00:33:51.840Z,2.38
2022-12-23T00:36:28.225Z,2.03
2022-12-23T00:39:15.695Z,2.35
2022-12-23T00:42:01.157Z,2.08
2022-12-23T00:44:28.445Z,2.22
2022-12-23T00:46:55.480Z,2.17
2022-12-23T00:49:40.906Z,2.05
2022-12-23T00:52:11.510Z,1.83
2022-12-23T00:54:38.583Z,1.48
2022-12-23T00:57:06.035Z,1.55
2022-12-23T00:59:33.991Z,1.88
2022-12-23T01:02:19.795Z,2.08
2022-12-23T01:05:05.399Z,1.65
2022-12-23T01:07:32.549Z,1.60
2022-12-23T01:09:59.529Z,2.20
2022-12-23T01:12:26.538Z,1.77
2022-12-23T01:14:53.531Z,2.20
2022-12-23T01:17:20.745Z,2.47
2022-12-23T01:19:47.779Z,2.20
2022-12-23T01:22:14.775Z,2.95
2022-12-23T01:24:41.755Z,3.20
2022-12-23T01:27:08.956Z,2.22
2022-12-23T01:29:35.913Z,2.92
2022-12-23T01:32:03.006Z,2.63
2022-12-23T01:34:36.310Z,2.83
2022-12-23T01:37:03.756Z,1.42
2022-12-23T01:39:30.744Z,2.17
2022-12-23T01:42:16.178Z,1.90
2022-12-23T01:44:56.954Z,2.40
2022-12-23T01:47:49.277Z,1.85
2022-12-23T01:50:34.443Z,1.95
2022-12-23T01:53:34.917Z,2.10
2022-12-23T01:56:16.665Z,1.83
2022-12-23T01:58:56.363Z,1.85
2022-12-23T02:01:43.285Z,1.80
2022-12-23T02:04:13.536Z,1.70
2022-12-23T02:07:02.168Z,1.50
2022-12-23T02:09:31.689Z,1.30
2022-12-23T02:12:31.413Z,1.40
2022-12-23T02:19:18.084Z,1.15
2022-12-23T02:21:45.050Z,1.70
2022-12-23T02:24:36.655Z,1.25
2022-12-23T02:27:14.891Z,1.10
2022-12-23T02:30:03.389Z,1.00
2022-12-23T02:33:06.605Z,1.38
2022-12-23T02:36:17.792Z,1.08
2022-12-23T02:39:02.273Z,1.10
2022-12-23T02:41:54.232Z,1.50
2022-12-23T02:44:32.756Z,1.35
2022-12-23T02:47:05.674Z,1.55
2022-12-23T02:49:40.636Z,1.58
2022-12-23T02:52:15.815Z,1.38
2022-12-23T02:54:48.836Z,1.80
2022-12-23T02:57:23.016Z,1.60
2022-12-23T02:59:52.205Z,1.30
2022-12-23T03:02:19.828Z,2.15
2022-12-23T03:04:47.028Z,1.77
2022-12-23T03:07:33.892Z,1.52
2022-12-23T03:10:09.774Z,1.20
2022-12-23T03:12:44.660Z,1.17
2022-12-23T03:15:17.923Z,1.25
2022-12-23T03:17:53.673Z,1.00
2022-12-23T03:20:39.036Z,1.08
2022-12-23T03:23:48.058Z,1.25
2022-12-23T03:26:31.194Z,1.13
2022-12-23T03:29:05.946Z,1.13
2022-12-23T03:31:36.415Z,1.00
2022-12-23T03:34:15.135Z,1.10
2022-12-23T03:36:49.847Z,1.42
2022-12-23T03:39:20.457Z,1.48
2022-12-23T03:42:04.803Z,1.40
2022-12-23T03:44:39.092Z,1.42
2022-12-23T03:47:09.392Z,1.80
2022-12-23T03:49:41.952Z,1.60
2022-12-23T03:52:22.594Z,1.85
2022-12-23T03:54:54.244Z,1.52
2022-12-23T03:57:26.006Z,1.52
2022-12-23T03:59:53.521Z,1.88
2022-12-23T04:02:47.019Z,1.70
2022-12-23T04:05:23.512Z,2.10
2022-12-23T04:07:50.621Z,2.20
2022-12-23T04:10:18.028Z,1.15
2022-12-23T04:12:45.076Z,2.22
2022-12-23T04:15:13.339Z,2.30
2022-12-23T04:17:40.766Z,2.63
2022-12-23T04:20:08.547Z,2.67
2022-12-23T04:22:35.596Z,2.72
2022-12-23T04:25:02.948Z,2.80
2022-12-23T04:27:29.919Z,2.15
2022-12-23T04:29:57.134Z,2.58
2022-12-23T04:32:24.264Z,2.55
2022-12-23T04:34:51.231Z,2.90
2022-12-23T04:37:18.179Z,3.20
2022-12-23T04:39:45.121Z,2.58
2022-12-23T04:42:12.188Z,3.35
2022-12-23T04:44:39.144Z,2.47
2022-12-23T04:47:06.202Z,3.30
2022-12-23T04:49:33.234Z,2.65
2022-12-23T04:52:00.289Z,3.30
2022-12-23T04:54:27.270Z,3.08
2022-12-23T04:56:54.434Z,2.88
2022-12-23T04:59:21.442Z,2.08
2022-12-23T05:01:48.640Z,2.60
2022-12-23T05:04:15.886Z,2.08
2022-12-23T05:06:42.951Z,2.80
2022-12-23T05:09:10.395Z,2.45
2022-12-23T05:11:42.100Z,2.45
2022-12-23T05:14:10.899Z,2.20
2022-12-23T05:16:38.289Z,2.08
2022-12-23T05:19:05.582Z,1.58
2022-12-23T05:21:32.993Z,1.75
2022-12-23T05:24:00.131Z,1.60
2022-12-23T05:26:27.273Z,2.03
2022-12-23T05:28:55.004Z,1.80
2022-12-23T05:31:22.040Z,1.77
2022-12-23T05:33:49.094Z,1.77
2022-12-23T05:36:16.106Z,1.98
2022-12-23T05:38:43.048Z,1.55
2022-12-23T05:41:10.188Z,1.70
2022-12-23T05:43:37.204Z,1.80
2022-12-23T05:46:05.664Z,1.83
2022-12-23T05:48:33.816Z,1.70
2022-12-23T05:51:00.842Z,1.88
2022-12-23T05:53:27.775Z,1.92
2022-12-23T05:55:54.829Z,2.05
2022-12-23T05:58:21.802Z,2.00
2022-12-23T06:00:48.814Z,1.45
2022-12-23T06:03:15.999Z,1.70
2022-12-23T06:05:44.130Z,1.05
2022-12-23T06:08:11.174Z,1.65
2022-12-23T06:10:38.281Z,1.50
2022-12-23T06:13:05.325Z,1.50
2022-12-23T06:15:32.410Z,1.50
2022-12-23T06:17:59.359Z,1.40
2022-12-23T06:20:26.434Z,1.60
2022-12-23T06:22:53.492Z,1.27
2022-12-23T06:25:20.596Z,1.65
2022-12-23T06:27:47.610Z,1.40
2022-12-23T06:30:14.910Z,1.27
2022-12-23T06:32:41.880Z,1.52
2022-12-23T06:35:09.663Z,1.40
2022-12-23T06:37:36.637Z,1.55
2022-12-23T06:40:04.343Z,1.85
2022-12-23T06:42:31.367Z,2.13
2022-12-23T06:44:58.360Z,1.60
2022-12-23T06:47:25.351Z,1.80
2022-12-23T06:49:52.452Z,1.55
2022-12-23T06:52:19.455Z,1.70
2022-12-23T06:54:46.401Z,1.50
2022-12-23T06:57:13.376Z,1.60
2022-12-23T06:59:40.375Z,1.25
2022-12-23T07:02:07.591Z,1.17
2022-12-23T07:04:34.713Z,1.23
2022-12-23T07:07:01.730Z,1.48
2022-12-23T07:09:28.770Z,1.63
2022-12-23T07:11:55.741Z,1.33
2022-12-23T07:14:22.723Z,1.50
2022-12-23T07:16:49.848Z,1.40
2022-12-23T07:19:16.852Z,2.10
2022-12-23T07:21:43.797Z,1.80
2022-12-23T07:24:10.970Z,2.53
2022-12-23T07:26:38.004Z,2.30
2022-12-23T07:29:05.264Z,2.55
2022-12-23T07:31:32.375Z,1.98
2022-12-23T07:33:59.387Z,1.63
2022-12-23T07:36:26.903Z,1.52
2022-12-23T07:38:53.946Z,1.65
2022-12-23T07:41:21.040Z,1.20
2022-12-23T07:43:48.243Z,1.17
2022-12-23T07:46:15.372Z,1.30
2022-12-23T07:48:42.444Z,0.90
2022-12-23T07:51:09.556Z,1.00
2022-12-23T07:53:36.607Z,1.00
2022-12-23T07:56:03.817Z,0.77
2022-12-23T07:58:30.801Z,1.00
2022-12-23T08:01:02.614Z,0.90
2022-12-23T08:03:29.904Z,1.00
2022-12-23T08:06:02.148Z,1.10
2022-12-23T08:08:29.188Z,1.02
2022-12-23T08:11:01.818Z,1.15
2022-12-23T08:13:29.162Z,1.15
2022-12-23T08:15:58.168Z,1.40
2022-12-23T08:18:26.087Z,0.90
2022-12-23T08:21:08.358Z,1.10
2022-12-23T08:23:35.643Z,0.90
2022-12-23T08:26:12.319Z,0.90
2022-12-23T08:28:40.579Z,1.00
2022-12-23T08:31:09.208Z,0.88
2022-12-23T08:33:38.202Z,0.90
2022-12-23T08:36:07.119Z,1.10
2022-12-23T08:38:35.013Z,0.90
2022-12-23T08:41:02.275Z,0.73
2022-12-23T08:43:35.476Z,1.27
2022-12-23T08:46:55.454Z,0.90
2022-12-23T08:49:23.204Z,1.10
2022-12-23T08:51:50.553Z,1.20
2022-12-23T08:54:19.786Z,1.15
2022-12-23T08:56:46.800Z,1.70
2022-12-23T08:59:19.005Z,3.30
2022-12-23T09:01:47.602Z,3.63
2022-12-23T09:04:14.832Z,2.65
2022-12-23T09:06:42.987Z,2.55
2022-12-23T09:09:15.355Z,2.10
2022-12-23T09:11:42.678Z,2.35
2022-12-23T09:14:11.682Z,2.97
2022-12-23T09:16:39.129Z,2.72
2022-12-23T09:19:06.251Z,3.15
2022-12-23T09:21:33.386Z,2.88
2022-12-23T09:24:00.353Z,3.60
2022-12-23T09:30:24.515Z,3.90
2022-12-23T09:33:55.867Z,4.28
2022-12-23T09:36:23.202Z,4.32
2022-12-23T09:38:57.926Z,4.28
2022-12-23T09:41:52.647Z,4.20
2022-12-23T09:44:43.283Z,4.82
2022-12-23T09:47:15.768Z,4.50
2022-12-23T09:49:59.051Z,4.45
2022-12-23T09:52:50.665Z,4.30
2022-12-23T09:55:23.021Z,4.47
2022-12-23T09:58:03.694Z,4.82
2022-12-23T10:00:42.197Z,4.47
2022-12-23T10:03:26.978Z,4.35
2022-12-23T10:06:15.775Z,4.25
2022-12-23T10:08:48.244Z,3.95
2022-12-23T10:11:25.954Z,3.38
2022-12-23T10:14:00.366Z,3.72
2022-12-23T10:16:39.981Z,3.80
2022-12-23T10:19:26.057Z,3.45
2022-12-23T10:22:06.519Z,3.80
2022-12-23T10:24:39.114Z,2.83
2022-12-23T10:31:43.209Z,3.05
2022-12-23T10:34:21.190Z,3.25
2022-12-23T10:37:18.561Z,2.83
2022-12-23T10:40:01.254Z,3.15
2022-12-23T10:42:58.548Z,3.10
2022-12-23T10:45:53.161Z,2.90
2022-12-23T10:48:38.250Z,3.25
2022-12-23T10:51:15.056Z,2.60
2022-12-23T10:53:50.494Z,2.40
2022-12-23T10:56:45.454Z,2.28
2022-12-23T10:59:19.278Z,2.08
2022-12-23T11:01:52.333Z,2.47
2022-12-23T11:04:26.493Z,2.38
2022-12-23T11:07:18.199Z,2.58
2022-12-23T11:09:54.603Z,2.53
2022-12-23T11:12:52.642Z,2.93
2022-12-23T11:15:40.893Z,2.42
2022-12-23T11:18:14.894Z,3.67
2022-12-23T11:20:43.550Z,3.35
2022-12-23T11:27:06.255Z,2.60
2022-12-23T11:29:39.327Z,2.40
2022-12-23T11:32:35.993Z,2.30
2022-12-23T11:35:04.151Z,2.35
2022-12-23T11:37:42.259Z,2.80
2022-12-23T11:40:41.381Z,2.60
2022-12-23T11:43:16.445Z,2.58
2022-12-23T11:45:43.426Z,2.70
2022-12-23T11:48:30.629Z,3.08
2022-12-23T11:51:03.711Z,2.53
2022-12-23T11:53:31.587Z,2.47
2022-12-23T11:56:09.961Z,2.67
2022-12-23T11:58:53.729Z,2.53
2022-12-23T12:01:24.055Z,2.95
2022-12-23T12:04:13.987Z,3.50
2022-12-23T12:06:49.797Z,3.58
2022-12-23T12:09:20.835Z,3.53
2022-12-23T12:11:56.628Z,3.20
2022-12-23T12:14:48.432Z,3.75
2022-12-23T12:17:18.887Z,3.83
2022-12-23T12:20:14.606Z,3.75
2022-12-23T12:22:59.316Z,3.67
2022-12-23T12:25:48.621Z,4.13
2022-12-23T12:28:22.573Z,3.17
2022-12-23T12:31:20.520Z,2.83
2022-12-23T12:34:44.145Z,3.22
2022-12-23T12:37:38.298Z,2.97
2022-12-23T12:40:09.919Z,3.05
2022-12-23T12:42:40.733Z,2.28
2022-12-23T12:45:25.300Z,2.70
2022-12-23T12:48:22.587Z,2.58
2022-12-23T12:51:19.148Z,2.50
2022-12-23T12:54:18.026Z,2.65
2022-12-23T12:56:57.162Z,2.60
2022-12-23T12:59:31.264Z,2.75
2022-12-23T13:02:16.417Z,3.03
2022-12-23T13:05:05.821Z,3.30
2022-12-23T13:08:17.498Z,3.22
2022-12-23T13:11:00.151Z,4.07
2022-12-23T13:13:39.743Z,4.25
2022-12-23T13:16:23.990Z,3.90
2022-12-23T13:18:59.682Z,2.58
2022-12-23T13:21:38.602Z,3.33
2022-12-23T13:25:09.105Z,3.80
2022-12-23T13:27:54.228Z,3.60
2022-12-23T13:30:23.969Z,3.75
2022-12-23T13:35:46.516Z,3.63
2022-12-23T13:38:40.840Z,3.55
2022-12-23T13:41:32.786Z,3.40
2022-12-23T13:44:07.940Z,3.85
2022-12-23T13:46:47.753Z,3.45
2022-12-23T13:49:37.045Z,3.70
2022-12-23T13:52:36.498Z,3.35
2022-12-23T13:55:22.445Z,2.80
2022-12-23T13:58:06.051Z,2.67
2022-12-23T14:00:34.888Z,2.65
2022-12-23T14:03:01.948Z,2.10
2022-12-23T14:05:38.936Z,2.33
2022-12-23T14:08:07.565Z,2.13
2022-12-23T14:10:36.173Z,2.60
2022-12-23T14:17:07.998Z,2.72
2022-12-23T14:20:42.417Z,2.60
2022-12-23T14:27:52.833Z,3.08
2022-12-23T14:30:45.811Z,3.17
2022-12-23T14:33:19.142Z,3.25
2022-12-23T14:35:46.092Z,2.45
2022-12-23T14:38:16.151Z,2.80
2022-12-23T14:40:43.077Z,3.17
2022-12-23T14:43:21.991Z,3.33
2022-12-23T14:45:50.019Z,3.72
2022-12-23T14:48:48.024Z,2.90
2022-12-23T14:51:15.100Z,2.72
2022-12-23T14:53:54.480Z,2.90
2022-12-23T14:57:19.696Z,1.67
2022-12-23T15:00:02.103Z,2.35
2022-12-23T15:02:37.421Z,2.83
2022-12-23T15:05:05.355Z,2.58
2022-12-23T15:07:42.360Z,2.80
2022-12-23T15:10:17.277Z,2.33
2022-12-23T15:12:48.183Z,2.90
2022-12-23T15:15:22.949Z,3.97
2022-12-23T15:18:01.838Z,2.40
2022-12-23T15:20:29.193Z,2.33
2022-12-23T15:23:34.171Z,1.35
2022-12-23T15:26:02.127Z,1.70
2022-12-23T15:28:38.257Z,2.20
2022-12-23T15:31:06.455Z,2.10
2022-12-23T15:36:32.349Z,3.60
2022-12-23T15:39:01.524Z,2.15
2022-12-23T15:41:29.058Z,3.17
2022-12-23T15:44:01.736Z,6.28
2022-12-23T15:46:30.583Z,2.90
2022-12-23T15:48:58.387Z,3.17
2022-12-23T15:52:05.267Z,5.68
2022-12-23T15:54:43.192Z,8.90
2022-12-23T15:57:19.203Z,5.07
2022-12-23T15:59:46.405Z,3.33
2022-12-23T16:02:40.920Z,3.78
2022-12-23T16:05:05.244Z,1.92
2022-12-23T16:07:32.813Z,2.07
2022-12-23T16:10:03.943Z,1.60
2022-12-23T16:12:34.638Z,1.88
2022-12-23T16:15:01.787Z,1.98
2022-12-23T16:17:36.173Z,1.50
2022-12-23T16:20:23.949Z,1.75
2022-12-23T16:22:54.242Z,1.65
2022-12-23T16:26:24.717Z,1.70
2022-12-23T16:28:54.743Z,1.73
2022-12-23T16:31:21.987Z,2.03
2022-12-23T16:33:56.384Z,1.85
2022-12-23T16:36:26.586Z,1.85
2022-12-23T16:39:06.551Z,1.60
2022-12-23T16:41:34.394Z,1.90
2022-12-23T16:44:08.782Z,1.40
2022-12-23T16:46:42.874Z,1.40
2022-12-23T16:49:16.133Z,1.38
2022-12-23T16:51:43.949Z,1.20
2022-12-23T16:54:16.972Z,1.30
2022-12-23T16:56:44.303Z,0.98
2022-12-23T16:59:11.335Z,1.15
2022-12-23T17:01:46.656Z,1.40
2022-12-23T17:04:13.864Z,0.90
2022-12-23T17:06:41.785Z,1.50
2022-12-23T17:09:10.577Z,3.20
2022-12-23T17:11:45.003Z,1.38
2022-12-23T17:14:30.253Z,1.60
2022-12-23T17:17:16.204Z,1.50
2022-12-23T17:19:43.323Z,1.35
2022-12-23T17:22:13.269Z,1.55
2022-12-23T17:24:40.294Z,1.25
2022-12-23T17:27:15.876Z,1.63
2022-12-23T17:29:42.962Z,1.20
2022-12-23T17:32:16.727Z,1.25
2022-12-23T17:34:43.845Z,1.40
2022-12-23T17:37:20.815Z,1.80
2022-12-23T17:39:48.565Z,1.75
2022-12-23T17:42:25.529Z,1.63
2022-12-23T17:44:52.969Z,1.40
2022-12-23T17:47:22.514Z,1.23
2022-12-23T17:49:50.041Z,1.67
2022-12-23T17:52:22.363Z,1.33
2022-12-23T17:54:51.164Z,1.80
2022-12-23T17:57:26.755Z,1.80
2022-12-23T17:59:54.788Z,1.40
2022-12-23T18:02:24.774Z,1.50
2022-12-23T18:04:52.032Z,0.98
2022-12-23T18:07:19.665Z,1.00
2022-12-23T18:09:46.955Z,1.10
2022-12-23T18:12:37.476Z,1.27
2022-12-23T18:15:06.195Z,1.10
2022-12-23T18:17:33.184Z,1.00
2022-12-23T18:20:43.768Z,1.00
2022-12-23T18:23:18.275Z,1.02
2022-12-23T18:25:45.331Z,1.00
2022-12-23T18:28:13.481Z,1.00
2022-12-23T18:30:40.589Z,0.75
2022-12-23T18:33:11.040Z,1.30
2022-12-23T18:35:46.886Z,0.90
2022-12-23T18:38:15.339Z,1.00
2022-12-23T18:40:43.543Z,0.70
2022-12-23T18:43:22.717Z,1.05
2022-12-23T18:45:53.123Z,0.95
2022-12-23T18:48:21.477Z,1.17
2022-12-23T18:50:48.913Z,0.80
2022-12-23T18:53:43.708Z,0.90
2022-12-23T18:56:15.443Z,1.00
2022-12-23T18:58:42.729Z,1.08
2022-12-23T19:01:17.819Z,0.90
2022-12-23T19:03:49.791Z,1.00
2022-12-23T19:06:17.098Z,2.53
2022-12-23T19:08:44.416Z,1.27
2022-12-23T19:11:18.055Z,0.88
2022-12-23T19:13:45.722Z,1.13
2022-12-23T19:16:18.190Z,1.00
2022-12-23T19:18:46.408Z,0.85
2022-12-23T19:21:13.955Z,0.82
2022-12-23T19:23:41.615Z,0.68
2022-12-23T19:26:13.848Z,5.32
2022-12-23T19:28:41.930Z,1.00
2022-12-23T19:31:11.746Z,1.45
2022-12-23T19:36:15.324Z,0.90
2022-12-23T19:38:42.680Z,1.33
2022-12-23T19:41:10.035Z,1.20
2022-12-23T19:43:38.729Z,1.73
2022-12-23T19:46:08.863Z,0.88
2022-12-23T19:48:36.743Z,0.93
2022-12-23T19:51:07.093Z,0.98
2022-12-23T19:57:53.848Z,0.70
2022-12-23T20:00:20.859Z,0.80
2022-12-23T20:02:50.165Z,1.00
2022-12-23T20:05:19.467Z,1.08
2022-12-23T20:07:46.432Z,0.88
2022-12-23T20:10:13.391Z,1.15
2022-12-23T20:12:40.366Z,1.08
2022-12-23T20:15:07.931Z,0.98
2022-12-23T20:17:34.911Z,0.88
2022-12-23T20:20:01.938Z,1.25
2022-12-23T20:22:28.957Z,1.10
2022-12-23T20:25:35.168Z,1.13
2022-12-23T20:28:02.210Z,1.00
2022-12-23T20:30:29.458Z,1.00
2022-12-23T20:32:57.558Z,1.30
2022-12-23T20:35:25.082Z,1.00
2022-12-23T20:37:52.197Z,0.98
2022-12-23T20:40:19.397Z,0.90
2022-12-23T20:42:46.781Z,0.90
2022-12-23T20:45:13.836Z,0.70
2022-12-23T20:47:40.819Z,0.90
2022-12-23T20:50:09.258Z,0.98
2022-12-23T20:52:36.219Z,1.00
2022-12-23T20:55:03.220Z,1.00
2022-12-23T20:57:31.735Z,1.00
2022-12-23T20:59:58.713Z,1.00
2022-12-23T21:02:25.835Z,1.00
2022-12-23T21:04:52.943Z,1.30
2022-12-23T21:07:19.995Z,0.90
2022-12-23T21:09:47.012Z,1.27
2022-12-23T21:12:14.068Z,1.20
2022-12-23T21:14:41.061Z,1.40
2022-12-23T21:17:08.042Z,1.40
2022-12-23T21:19:35.120Z,0.60
2022-12-23T21:22:02.323Z,1.50
2022-12-23T21:24:29.296Z,1.50
2022-12-23T21:26:57.433Z,1.80
2022-12-23T21:29:25.644Z,1.17
2022-12-23T21:31:52.747Z,1.70
2022-12-23T21:34:19.859Z,1.65
2022-12-23T21:36:46.947Z,1.77
2022-12-23T21:39:15.857Z,1.63
2022-12-23T21:41:43.382Z,1.70
2022-12-23T21:44:13.567Z,2.08
2022-12-23T21:46:40.811Z,1.30
2022-12-23T21:49:07.839Z,2.00
2022-12-23T21:51:40.051Z,1.70
2022-12-23T21:54:09.250Z,1.80
2022-12-23T21:56:36.443Z,2.63
2022-12-23T21:59:06.694Z,1.70
2022-12-23T22:01:34.659Z,1.58
2022-12-23T22:04:01.727Z,1.65
2022-12-23T22:06:31.894Z,1.90
2022-12-23T22:08:59.956Z,1.90
2022-12-23T22:11:30.501Z,1.60
2022-12-23T22:13:59.093Z,1.88
2022-12-23T22:16:28.412Z,1.98
2022-12-23T22:18:56.970Z,1.85
2022-12-23T22:21:25.538Z,1.80
2022-12-23T22:28:05.260Z,1.63
2022-12-23T22:30:32.274Z,1.83
2022-12-23T22:32:59.353Z,1.20
2022-12-23T22:35:28.096Z,0.80
2022-12-23T22:37:55.233Z,0.60
2022-12-23T22:40:22.347Z,0.82
2022-12-23T22:42:49.439Z,0.60
2022-12-23T22:45:16.563Z,1.00
2022-12-23T22:47:43.544Z,1.27
2022-12-23T22:50:10.985Z,1.10
2022-12-23T22:52:37.959Z,1.42
2022-12-23T22:55:06.297Z,1.50
2022-12-23T22:57:33.938Z,1.67
2022-12-23T23:00:06.213Z,2.10
2022-12-23T23:02:38.453Z,1.15
2022-12-23T23:05:12.322Z,1.63
2022-12-23T23:07:39.782Z,3.30
2022-12-23T23:10:07.478Z,2.00
2022-12-23T23:12:34.493Z,1.30
2022-12-23T23:15:28.617Z,1.60
2022-12-23T23:17:56.386Z,2.03
2022-12-23T23:20:23.317Z,2.03
2022-12-23T23:22:50.283Z,2.78
2022-12-23T23:25:17.368Z,2.15
2022-12-23T23:27:44.355Z,1.67
2022-12-23T23:30:11.625Z,2.50
2022-12-23T23:32:38.674Z,2.20
2022-12-23T23:35:10.667Z,2.47
2022-12-23T23:37:38.163Z,1.48
2022-12-23T23:40:06.513Z,2.70
2022-12-23T23:42:33.859Z,2.13
2022-12-23T23:45:00.853Z,1.92
2022-12-23T23:47:27.939Z,2.10
2022-12-23T23:49:54.925Z,2.00
2022-12-23T23:52:21.879Z,1.95
2022-12-23T23:54:48.854Z,2.05
2022-12-23T23:57:16.667Z,2.20
2022-12-23T23:59:43.629Z,2.30
